Terminal Aerodrome Forecast
Issued by NWS Twin Cities, MN

Home | Current Version | Previous Version | Graphics & Text | Print | Product List | Glossary On
Versions: 1 2 3 4 5 6 7 8 9 10 11 12 13 14 15 16 17
000
FTUS43 KMPX 250336 AAA
TAFEAU
TAF AMD
KEAU 250336Z 2504/2524 13007KT 6SM -SN BR OVC040
     FM251000 16005KT 3SM -SN BR OVC011
     FM251200 22004KT 6SM BR BKN015
     FM251500 25012G20KT P6SM BKN020=

USA.gov is the U.S. government's official web portal to all federal, state and local government web resources and services.